sensor_id;sensor_type;location;lat;lon;timestamp;P1;durP1;ratioP1;P2;durP2;ratioP2
826;SDS011;395;48.132;11.608;2022-07-03T00:01:31;8.23;;;7.00;;
826;SDS011;395;48.132;11.608;2022-07-03T00:03:57;7.40;;;6.70;;
826;SDS011;395;48.132;11.608;2022-07-03T00:06:22;9.63;;;8.30;;
826;SDS011;395;48.132;11.608;2022-07-03T00:08:48;8.40;;;7.70;;
826;SDS011;395;48.132;11.608;2022-07-03T00:11:14;8.80;;;8.00;;
826;SDS011;395;48.132;11.608;2022-07-03T00:13:41;10.33;;;7.07;;
826;SDS011;395;48.132;11.608;2022-07-03T00:16:07;7.77;;;6.97;;
826;SDS011;395;48.132;11.608;2022-07-03T00:18:32;7.20;;;6.50;;
826;SDS011;395;48.132;11.608;2022-07-03T00:21:00;8.23;;;7.50;;
826;SDS011;395;48.132;11.608;2022-07-03T00:23:28;10.97;;;7.30;;
826;SDS011;395;48.132;11.608;2022-07-03T00:25:55;13.67;;;12.30;;
826;SDS011;395;48.132;11.608;2022-07-03T00:28:26;11.30;;;10.27;;
826;SDS011;395;48.132;11.608;2022-07-03T00:30:53;8.10;;;7.40;;
826;SDS011;395;48.132;11.608;2022-07-03T00:33:21;10.70;;;7.40;;
826;SDS011;395;48.132;11.608;2022-07-03T00:35:48;8.27;;;6.00;;
826;SDS011;395;48.132;11.608;2022-07-03T00:38:16;7.40;;;6.70;;
826;SDS011;395;48.132;11.608;2022-07-03T00:40:43;7.90;;;6.77;;
826;SDS011;395;48.132;11.608;2022-07-03T00:43:09;8.57;;;7.77;;
826;SDS011;395;48.132;11.608;2022-07-03T00:45:35;11.93;;;7.70;;
826;SDS011;395;48.132;11.608;2022-07-03T00:48:01;9.70;;;7.93;;
826;SDS011;395;48.132;11.608;2022-07-03T00:50:35;7.20;;;6.50;;
826;SDS011;395;48.132;11.608;2022-07-03T00:53:02;8.63;;;6.13;;
826;SDS011;395;48.132;11.608;2022-07-03T00:55:28;7.20;;;6.50;;
826;SDS011;395;48.132;11.608;2022-07-03T00:57:55;6.10;;;5.60;;
826;SDS011;395;48.132;11.608;2022-07-03T01:00:22;5.97;;;5.43;;
826;SDS011;395;48.132;11.608;2022-07-03T01:02:55;6.70;;;5.93;;
826;SDS011;395;48.132;11.608;2022-07-03T01:10:55;6.97;;;6.37;;
826;SDS011;395;48.132;11.608;2022-07-03T01:13:50;6.93;;;6.33;;
826;SDS011;395;48.132;11.608;2022-07-03T01:25:24;7.10;;;6.00;;
826;SDS011;395;48.132;11.608;2022-07-03T01:30:34;4.83;;;4.40;;
826;SDS011;395;48.132;11.608;2022-07-03T01:33:10;4.57;;;4.27;;
826;SDS011;395;48.132;11.608;2022-07-03T01:35:40;5.53;;;4.27;;
826;SDS011;395;48.132;11.608;2022-07-03T01:38:12;5.27;;;4.17;;
826;SDS011;395;48.132;11.608;2022-07-03T01:40:39;6.10;;;5.50;;
826;SDS011;395;48.132;11.608;2022-07-03T01:43:08;10.60;;;9.20;;
826;SDS011;395;48.132;11.608;2022-07-03T01:45:42;10.57;;;9.67;;
826;SDS011;395;48.132;11.608;2022-07-03T01:48:10;9.13;;;8.23;;
826;SDS011;395;48.132;11.608;2022-07-03T01:50:37;11.93;;;10.80;;
826;SDS011;395;48.132;11.608;2022-07-03T01:53:05;12.77;;;11.20;;
826;SDS011;395;48.132;11.608;2022-07-03T01:55:32;10.37;;;9.43;;
826;SDS011;395;48.132;11.608;2022-07-03T01:57:59;6.57;;;5.90;;
826;SDS011;395;48.132;11.608;2022-07-03T02:00:26;5.70;;;4.70;;
826;SDS011;395;48.132;11.608;2022-07-03T02:07:59;5.53;;;5.03;;
826;SDS011;395;48.132;11.608;2022-07-03T02:10:51;9.03;;;6.30;;
826;SDS011;395;48.132;11.608;2022-07-03T02:13:37;7.30;;;5.37;;
826;SDS011;395;48.132;11.608;2022-07-03T02:16:09;4.30;;;4.00;;
826;SDS011;395;48.132;11.608;2022-07-03T02:18:41;6.07;;;4.10;;
826;SDS011;395;48.132;11.608;2022-07-03T02:21:15;4.33;;;4.03;;
826;SDS011;395;48.132;11.608;2022-07-03T02:26:13;4.67;;;4.27;;
826;SDS011;395;48.132;11.608;2022-07-03T02:31:33;4.33;;;3.63;;
826;SDS011;395;48.132;11.608;2022-07-03T02:34:04;4.77;;;4.37;;
826;SDS011;395;48.132;11.608;2022-07-03T02:36:31;5.80;;;3.80;;
826;SDS011;395;48.132;11.608;2022-07-03T02:39:00;3.27;;;3.03;;
826;SDS011;395;48.132;11.608;2022-07-03T02:41:37;3.70;;;3.40;;
826;SDS011;395;48.132;11.608;2022-07-03T02:44:10;4.77;;;4.37;;
826;SDS011;395;48.132;11.608;2022-07-03T02:54:51;3.87;;;3.57;;
826;SDS011;395;48.132;11.608;2022-07-03T02:57:18;4.50;;;3.83;;
826;SDS011;395;48.132;11.608;2022-07-03T03:02:35;3.70;;;3.30;;
826;SDS011;395;48.132;11.608;2022-07-03T03:05:15;3.67;;;3.37;;
826;SDS011;395;48.132;11.608;2022-07-03T03:10:48;3.47;;;3.27;;
826;SDS011;395;48.132;11.608;2022-07-03T03:13:15;3.60;;;3.30;;
826;SDS011;395;48.132;11.608;2022-07-03T03:15:47;3.37;;;3.07;;
826;SDS011;395;48.132;11.608;2022-07-03T03:18:33;3.50;;;3.27;;
826;SDS011;395;48.132;11.608;2022-07-03T03:21:02;3.53;;;3.33;;
826;SDS011;395;48.132;11.608;2022-07-03T03:26:13;3.17;;;2.87;;
826;SDS011;395;48.132;11.608;2022-07-03T03:28:43;3.10;;;2.90;;
826;SDS011;395;48.132;11.608;2022-07-03T03:31:09;3.67;;;3.30;;
826;SDS011;395;48.132;11.608;2022-07-03T03:33:37;4.47;;;3.37;;
826;SDS011;395;48.132;11.608;2022-07-03T03:36:05;3.37;;;3.10;;
826;SDS011;395;48.132;11.608;2022-07-03T03:38:32;3.43;;;3.13;;
826;SDS011;395;48.132;11.608;2022-07-03T03:40:58;3.20;;;3.00;;
826;SDS011;395;48.132;11.608;2022-07-03T03:43:25;3.07;;;2.77;;
826;SDS011;395;48.132;11.608;2022-07-03T03:45:51;3.40;;;3.20;;
826;SDS011;395;48.132;11.608;2022-07-03T03:48:16;2.87;;;2.67;;
826;SDS011;395;48.132;11.608;2022-07-03T03:50:42;3.13;;;2.93;;
826;SDS011;395;48.132;11.608;2022-07-03T03:53:09;4.77;;;2.80;;
826;SDS011;395;48.132;11.608;2022-07-03T03:55:37;3.33;;;3.13;;
826;SDS011;395;48.132;11.608;2022-07-03T03:58:02;3.77;;;3.47;;
826;SDS011;395;48.132;11.608;2022-07-03T04:00:29;3.80;;;3.50;;
826;SDS011;395;48.132;11.608;2022-07-03T04:02:55;2.90;;;2.70;;
826;SDS011;395;48.132;11.608;2022-07-03T04:05:21;3.20;;;3.00;;
826;SDS011;395;48.132;11.608;2022-07-03T04:07:47;3.23;;;3.03;;
826;SDS011;395;48.132;11.608;2022-07-03T04:10:12;4.20;;;3.40;;
826;SDS011;395;48.132;11.608;2022-07-03T04:12:38;3.73;;;3.43;;
826;SDS011;395;48.132;11.608;2022-07-03T04:15:04;3.53;;;3.33;;
826;SDS011;395;48.132;11.608;2022-07-03T04:17:30;3.53;;;3.33;;
826;SDS011;395;48.132;11.608;2022-07-03T04:19:55;4.57;;;3.43;;
826;SDS011;395;48.132;11.608;2022-07-03T04:22:21;5.67;;;3.33;;
826;SDS011;395;48.132;11.608;2022-07-03T04:24:47;3.33;;;2.97;;
826;SDS011;395;48.132;11.608;2022-07-03T04:27:13;3.53;;;2.90;;
826;SDS011;395;48.132;11.608;2022-07-03T04:29:38;3.80;;;3.50;;
826;SDS011;395;48.132;11.608;2022-07-03T04:32:04;4.10;;;3.80;;
826;SDS011;395;48.132;11.608;2022-07-03T04:34:30;3.50;;;3.30;;
826;SDS011;395;48.132;11.608;2022-07-03T04:36:56;3.70;;;3.40;;
826;SDS011;395;48.132;11.608;2022-07-03T04:39:21;4.17;;;3.87;;
826;SDS011;395;48.132;11.608;2022-07-03T04:41:47;3.53;;;3.27;;
826;SDS011;395;48.132;11.608;2022-07-03T04:44:13;4.10;;;3.70;;
826;SDS011;395;48.132;11.608;2022-07-03T04:46:38;3.50;;;3.17;;
826;SDS011;395;48.132;11.608;2022-07-03T04:49:05;3.10;;;2.90;;
826;SDS011;395;48.132;11.608;2022-07-03T04:51:30;3.43;;;2.83;;
826;SDS011;395;48.132;11.608;2022-07-03T04:53:56;3.43;;;3.13;;
826;SDS011;395;48.132;11.608;2022-07-03T04:56:22;3.07;;;2.87;;
826;SDS011;395;48.132;11.608;2022-07-03T04:58:47;2.70;;;2.50;;
826;SDS011;395;48.132;11.608;2022-07-03T05:01:13;3.33;;;3.00;;
826;SDS011;395;48.132;11.608;2022-07-03T05:03:38;3.27;;;3.07;;
826;SDS011;395;48.132;11.608;2022-07-03T05:06:04;3.40;;;3.20;;
826;SDS011;395;48.132;11.608;2022-07-03T05:08:30;4.70;;;3.20;;
826;SDS011;395;48.132;11.608;2022-07-03T05:10:56;3.57;;;3.27;;
826;SDS011;395;48.132;11.608;2022-07-03T05:13:21;3.40;;;3.20;;
826;SDS011;395;48.132;11.608;2022-07-03T05:15:47;3.90;;;3.23;;
826;SDS011;395;48.132;11.608;2022-07-03T05:18:13;3.10;;;2.90;;
826;SDS011;395;48.132;11.608;2022-07-03T05:20:38;3.27;;;3.00;;
826;SDS011;395;48.132;11.608;2022-07-03T05:23:04;3.23;;;3.03;;
826;SDS011;395;48.132;11.608;2022-07-03T05:25:30;3.20;;;3.00;;
826;SDS011;395;48.132;11.608;2022-07-03T05:27:57;3.07;;;2.87;;
826;SDS011;395;48.132;11.608;2022-07-03T05:30:24;3.20;;;3.00;;
826;SDS011;395;48.132;11.608;2022-07-03T05:32:51;3.47;;;3.17;;
826;SDS011;395;48.132;11.608;2022-07-03T05:35:17;3.40;;;3.10;;
826;SDS011;395;48.132;11.608;2022-07-03T05:37:43;3.00;;;2.80;;
826;SDS011;395;48.132;11.608;2022-07-03T05:40:09;3.73;;;3.10;;
826;SDS011;395;48.132;11.608;2022-07-03T05:42:35;3.10;;;2.90;;
826;SDS011;395;48.132;11.608;2022-07-03T05:45:01;2.70;;;2.50;;
826;SDS011;395;48.132;11.608;2022-07-03T05:47:27;3.33;;;3.03;;
826;SDS011;395;48.132;11.608;2022-07-03T05:49:53;3.00;;;2.80;;
826;SDS011;395;48.132;11.608;2022-07-03T05:52:19;3.30;;;3.00;;
826;SDS011;395;48.132;11.608;2022-07-03T05:54:45;3.37;;;3.13;;
826;SDS011;395;48.132;11.608;2022-07-03T05:57:10;2.93;;;2.73;;
826;SDS011;395;48.132;11.608;2022-07-03T05:59:36;3.17;;;2.97;;
826;SDS011;395;48.132;11.608;2022-07-03T06:02:03;4.13;;;3.03;;
826;SDS011;395;48.132;11.608;2022-07-03T06:04:29;3.40;;;3.10;;
826;SDS011;395;48.132;11.608;2022-07-03T06:06:55;3.50;;;3.20;;
826;SDS011;395;48.132;11.608;2022-07-03T06:09:21;2.93;;;2.73;;
826;SDS011;395;48.132;11.608;2022-07-03T06:11:47;2.63;;;2.43;;
826;SDS011;395;48.132;11.608;2022-07-03T06:14:13;2.87;;;2.67;;
826;SDS011;395;48.132;11.608;2022-07-03T06:16:40;2.80;;;2.60;;
826;SDS011;395;48.132;11.608;2022-07-03T06:19:06;2.83;;;2.63;;
826;SDS011;395;48.132;11.608;2022-07-03T06:21:31;6.70;;;2.87;;
826;SDS011;395;48.132;11.608;2022-07-03T06:23:57;4.17;;;3.10;;
826;SDS011;395;48.132;11.608;2022-07-03T06:26:24;3.30;;;3.00;;
826;SDS011;395;48.132;11.608;2022-07-03T06:28:50;2.80;;;2.60;;
826;SDS011;395;48.132;11.608;2022-07-03T06:31:16;2.77;;;2.57;;
826;SDS011;395;48.132;11.608;2022-07-03T06:33:42;3.27;;;2.70;;
826;SDS011;395;48.132;11.608;2022-07-03T06:36:08;3.43;;;2.80;;
826;SDS011;395;48.132;11.608;2022-07-03T06:38:33;3.20;;;3.00;;
826;SDS011;395;48.132;11.608;2022-07-03T06:40:59;2.60;;;2.40;;
826;SDS011;395;48.132;11.608;2022-07-03T06:43:25;2.60;;;2.40;;
826;SDS011;395;48.132;11.608;2022-07-03T06:45:50;2.50;;;2.40;;
826;SDS011;395;48.132;11.608;2022-07-03T06:48:16;2.30;;;2.13;;
826;SDS011;395;48.132;11.608;2022-07-03T06:50:43;2.57;;;2.27;;
826;SDS011;395;48.132;11.608;2022-07-03T06:53:10;2.57;;;2.37;;
826;SDS011;395;48.132;11.608;2022-07-03T06:55:35;2.80;;;2.60;;
826;SDS011;395;48.132;11.608;2022-07-03T06:58:01;2.37;;;2.27;;
826;SDS011;395;48.132;11.608;2022-07-03T07:00:27;2.53;;;2.33;;
826;SDS011;395;48.132;11.608;2022-07-03T07:02:53;2.70;;;2.50;;
826;SDS011;395;48.132;11.608;2022-07-03T07:05:19;2.30;;;2.20;;
826;SDS011;395;48.132;11.608;2022-07-03T07:07:44;2.20;;;2.10;;
826;SDS011;395;48.132;11.608;2022-07-03T07:10:10;2.50;;;2.33;;
826;SDS011;395;48.132;11.608;2022-07-03T07:12:36;2.60;;;2.40;;
826;SDS011;395;48.132;11.608;2022-07-03T07:15:01;2.23;;;2.13;;
826;SDS011;395;48.132;11.608;2022-07-03T07:17:27;2.67;;;2.47;;
826;SDS011;395;48.132;11.608;2022-07-03T07:19:54;2.03;;;1.93;;
826;SDS011;395;48.132;11.608;2022-07-03T07:22:21;2.60;;;2.40;;
826;SDS011;395;48.132;11.608;2022-07-03T07:24:47;2.70;;;2.50;;
826;SDS011;395;48.132;11.608;2022-07-03T07:27:13;2.60;;;2.30;;
826;SDS011;395;48.132;11.608;2022-07-03T07:29:39;2.90;;;2.60;;
826;SDS011;395;48.132;11.608;2022-07-03T07:32:05;2.60;;;2.40;;
826;SDS011;395;48.132;11.608;2022-07-03T07:34:31;2.67;;;2.47;;
826;SDS011;395;48.132;11.608;2022-07-03T07:36:57;3.20;;;2.77;;
826;SDS011;395;48.132;11.608;2022-07-03T07:39:22;2.87;;;2.67;;
826;SDS011;395;48.132;11.608;2022-07-03T07:41:48;3.10;;;2.30;;
826;SDS011;395;48.132;11.608;2022-07-03T07:44:13;2.90;;;2.70;;
826;SDS011;395;48.132;11.608;2022-07-03T07:46:39;2.70;;;2.50;;
826;SDS011;395;48.132;11.608;2022-07-03T07:49:05;2.50;;;2.30;;
826;SDS011;395;48.132;11.608;2022-07-03T07:51:31;2.57;;;2.37;;
826;SDS011;395;48.132;11.608;2022-07-03T07:53:57;3.10;;;2.20;;
826;SDS011;395;48.132;11.608;2022-07-03T07:56:24;3.00;;;2.80;;
826;SDS011;395;48.132;11.608;2022-07-03T07:58:50;4.53;;;2.50;;
826;SDS011;395;48.132;11.608;2022-07-03T08:01:19;4.00;;;2.20;;
826;SDS011;395;48.132;11.608;2022-07-03T08:04:03;2.53;;;2.33;;
826;SDS011;395;48.132;11.608;2022-07-03T08:06:48;2.87;;;2.67;;
826;SDS011;395;48.132;11.608;2022-07-03T08:09:14;2.43;;;2.23;;
826;SDS011;395;48.132;11.608;2022-07-03T08:11:40;2.57;;;2.37;;
826;SDS011;395;48.132;11.608;2022-07-03T08:14:06;2.77;;;2.57;;
826;SDS011;395;48.132;11.608;2022-07-03T08:16:33;2.77;;;2.57;;
826;SDS011;395;48.132;11.608;2022-07-03T08:18:59;7.53;;;2.47;;
826;SDS011;395;48.132;11.608;2022-07-03T08:21:25;2.47;;;2.27;;
826;SDS011;395;48.132;11.608;2022-07-03T08:23:52;2.93;;;2.73;;
826;SDS011;395;48.132;11.608;2022-07-03T08:26:18;2.43;;;2.33;;
826;SDS011;395;48.132;11.608;2022-07-03T08:28:43;2.57;;;2.37;;
826;SDS011;395;48.132;11.608;2022-07-03T08:31:09;2.80;;;2.37;;
826;SDS011;395;48.132;11.608;2022-07-03T08:33:35;2.10;;;2.00;;
826;SDS011;395;48.132;11.608;2022-07-03T08:36:01;2.40;;;2.20;;
826;SDS011;395;48.132;11.608;2022-07-03T08:38:28;2.40;;;2.20;;
826;SDS011;395;48.132;11.608;2022-07-03T08:40:59;2.50;;;2.30;;
826;SDS011;395;48.132;11.608;2022-07-03T08:43:25;2.17;;;2.07;;
826;SDS011;395;48.132;11.608;2022-07-03T08:45:52;2.30;;;2.10;;
826;SDS011;395;48.132;11.608;2022-07-03T08:48:19;2.53;;;2.40;;
826;SDS011;395;48.132;11.608;2022-07-03T08:50:47;2.80;;;2.40;;
826;SDS011;395;48.132;11.608;2022-07-03T08:53:13;1.93;;;1.83;;
826;SDS011;395;48.132;11.608;2022-07-03T08:55:40;2.70;;;2.50;;
826;SDS011;395;48.132;11.608;2022-07-03T08:58:06;1.87;;;1.77;;
826;SDS011;395;48.132;11.608;2022-07-03T09:00:35;2.37;;;2.17;;
826;SDS011;395;48.132;11.608;2022-07-03T09:03:02;2.50;;;1.77;;
826;SDS011;395;48.132;11.608;2022-07-03T09:05:29;3.07;;;2.20;;
826;SDS011;395;48.132;11.608;2022-07-03T09:07:55;2.20;;;2.10;;
826;SDS011;395;48.132;11.608;2022-07-03T09:10:24;2.10;;;2.00;;
826;SDS011;395;48.132;11.608;2022-07-03T09:12:49;1.80;;;1.70;;
826;SDS011;395;48.132;11.608;2022-07-03T09:15:15;3.07;;;2.40;;
826;SDS011;395;48.132;11.608;2022-07-03T09:20:36;2.47;;;1.87;;
826;SDS011;395;48.132;11.608;2022-07-03T09:23:11;3.63;;;1.80;;
826;SDS011;395;48.132;11.608;2022-07-03T09:28:42;2.37;;;2.20;;
826;SDS011;395;48.132;11.608;2022-07-03T09:31:16;2.70;;;2.50;;
826;SDS011;395;48.132;11.608;2022-07-03T09:34:02;2.23;;;2.13;;
826;SDS011;395;48.132;11.608;2022-07-03T09:39:37;1.83;;;1.73;;
826;SDS011;395;48.132;11.608;2022-07-03T09:42:05;1.77;;;1.67;;
826;SDS011;395;48.132;11.608;2022-07-03T09:44:41;1.70;;;1.60;;
826;SDS011;395;48.132;11.608;2022-07-03T09:49:44;1.57;;;1.47;;
826;SDS011;395;48.132;11.608;2022-07-03T09:52:27;1.97;;;1.87;;
826;SDS011;395;48.132;11.608;2022-07-03T09:55:11;1.70;;;1.60;;
826;SDS011;395;48.132;11.608;2022-07-03T09:57:43;1.70;;;1.60;;
826;SDS011;395;48.132;11.608;2022-07-03T10:00:26;2.73;;;2.03;;
826;SDS011;395;48.132;11.608;2022-07-03T10:05:20;1.73;;;1.63;;
826;SDS011;395;48.132;11.608;2022-07-03T10:10:18;3.43;;;1.80;;
826;SDS011;395;48.132;11.608;2022-07-03T10:12:46;2.40;;;1.90;;
826;SDS011;395;48.132;11.608;2022-07-03T10:15:14;2.30;;;1.60;;
826;SDS011;395;48.132;11.608;2022-07-03T10:17:42;1.93;;;1.70;;
826;SDS011;395;48.132;11.608;2022-07-03T10:20:19;1.50;;;1.40;;
826;SDS011;395;48.132;11.608;2022-07-03T10:23:20;1.50;;;1.40;;
826;SDS011;395;48.132;11.608;2022-07-03T10:25:47;1.57;;;1.47;;
826;SDS011;395;48.132;11.608;2022-07-03T10:28:15;1.37;;;1.27;;
826;SDS011;395;48.132;11.608;2022-07-03T10:30:48;1.60;;;1.50;;
826;SDS011;395;48.132;11.608;2022-07-03T10:33:14;1.50;;;1.40;;
826;SDS011;395;48.132;11.608;2022-07-03T10:35:49;1.40;;;1.30;;
826;SDS011;395;48.132;11.608;2022-07-03T10:41:28;1.30;;;1.20;;
826;SDS011;395;48.132;11.608;2022-07-03T10:44:16;1.87;;;1.27;;
826;SDS011;395;48.132;11.608;2022-07-03T10:47:01;2.10;;;1.63;;
826;SDS011;395;48.132;11.608;2022-07-03T10:49:26;1.40;;;1.30;;
826;SDS011;395;48.132;11.608;2022-07-03T10:51:56;1.50;;;1.40;;
826;SDS011;395;48.132;11.608;2022-07-03T11:07:27;1.77;;;1.10;;
826;SDS011;395;48.132;11.608;2022-07-03T11:10:30;1.60;;;1.40;;
826;SDS011;395;48.132;11.608;2022-07-03T11:15:38;1.53;;;1.43;;
826;SDS011;395;48.132;11.608;2022-07-03T11:25:38;1.90;;;1.53;;
826;SDS011;395;48.132;11.608;2022-07-03T11:41:14;1.20;;;1.10;;
826;SDS011;395;48.132;11.608;2022-07-03T11:43:48;1.10;;;1.10;;
826;SDS011;395;48.132;11.608;2022-07-03T11:46:18;1.30;;;1.20;;
826;SDS011;395;48.132;11.608;2022-07-03T11:48:45;1.20;;;1.20;;
826;SDS011;395;48.132;11.608;2022-07-03T11:51:11;1.97;;;1.87;;
826;SDS011;395;48.132;11.608;2022-07-03T11:53:38;2.23;;;1.37;;
826;SDS011;395;48.132;11.608;2022-07-03T11:56:11;2.30;;;2.10;;
826;SDS011;395;48.132;11.608;2022-07-03T12:09:11;1.00;;;1.00;;
826;SDS011;395;48.132;11.608;2022-07-03T12:11:41;3.07;;;1.40;;
826;SDS011;395;48.132;11.608;2022-07-03T12:14:16;1.60;;;1.20;;
826;SDS011;395;48.132;11.608;2022-07-03T12:16:42;1.43;;;1.20;;
826;SDS011;395;48.132;11.608;2022-07-03T12:19:07;1.73;;;1.40;;
826;SDS011;395;48.132;11.608;2022-07-03T12:21:37;1.20;;;1.10;;
826;SDS011;395;48.132;11.608;2022-07-03T12:24:12;1.30;;;1.13;;
826;SDS011;395;48.132;11.608;2022-07-03T12:26:38;2.23;;;1.40;;
826;SDS011;395;48.132;11.608;2022-07-03T12:31:35;1.50;;;1.30;;
826;SDS011;395;48.132;11.608;2022-07-03T12:34:03;1.30;;;1.20;;
826;SDS011;395;48.132;11.608;2022-07-03T12:36:29;1.17;;;1.07;;
826;SDS011;395;48.132;11.608;2022-07-03T12:38:56;2.13;;;1.37;;
826;SDS011;395;48.132;11.608;2022-07-03T12:41:23;2.90;;;1.30;;
826;SDS011;395;48.132;11.608;2022-07-03T12:43:50;1.40;;;1.30;;
826;SDS011;395;48.132;11.608;2022-07-03T12:48:50;2.23;;;1.50;;
826;SDS011;395;48.132;11.608;2022-07-03T12:57:02;1.40;;;1.30;;
826;SDS011;395;48.132;11.608;2022-07-03T13:00:00;1.20;;;1.10;;
826;SDS011;395;48.132;11.608;2022-07-03T13:02:29;1.53;;;1.43;;
826;SDS011;395;48.132;11.608;2022-07-03T13:04:55;2.07;;;1.50;;
826;SDS011;395;48.132;11.608;2022-07-03T13:07:22;1.30;;;1.20;;
826;SDS011;395;48.132;11.608;2022-07-03T13:09:52;1.37;;;1.27;;
826;SDS011;395;48.132;11.608;2022-07-03T13:12:22;2.33;;;1.20;;
826;SDS011;395;48.132;11.608;2022-07-03T13:14:57;1.53;;;1.43;;
826;SDS011;395;48.132;11.608;2022-07-03T13:17:49;1.33;;;1.23;;
826;SDS011;395;48.132;11.608;2022-07-03T13:20:15;1.53;;;1.43;;
826;SDS011;395;48.132;11.608;2022-07-03T13:22:41;2.47;;;1.60;;
826;SDS011;395;48.132;11.608;2022-07-03T13:25:07;1.60;;;1.50;;
826;SDS011;395;48.132;11.608;2022-07-03T13:27:33;1.83;;;1.43;;
826;SDS011;395;48.132;11.608;2022-07-03T13:29:59;1.60;;;1.50;;
826;SDS011;395;48.132;11.608;2022-07-03T13:32:25;1.23;;;1.13;;
826;SDS011;395;48.132;11.608;2022-07-03T13:34:50;1.40;;;1.30;;
826;SDS011;395;48.132;11.608;2022-07-03T13:37:16;1.50;;;1.40;;
826;SDS011;395;48.132;11.608;2022-07-03T13:39:42;1.57;;;1.47;;
826;SDS011;395;48.132;11.608;2022-07-03T13:42:07;1.50;;;1.40;;
826;SDS011;395;48.132;11.608;2022-07-03T13:44:35;1.87;;;1.60;;
826;SDS011;395;48.132;11.608;2022-07-03T13:47:02;1.70;;;1.60;;
826;SDS011;395;48.132;11.608;2022-07-03T13:49:30;1.50;;;1.40;;
826;SDS011;395;48.132;11.608;2022-07-03T13:51:56;1.60;;;1.50;;
826;SDS011;395;48.132;11.608;2022-07-03T13:54:22;2.17;;;1.50;;
826;SDS011;395;48.132;11.608;2022-07-03T13:56:47;1.93;;;1.70;;
826;SDS011;395;48.132;11.608;2022-07-03T13:59:13;1.47;;;1.37;;
826;SDS011;395;48.132;11.608;2022-07-03T14:01:39;1.23;;;1.13;;
826;SDS011;395;48.132;11.608;2022-07-03T14:04:05;2.13;;;1.60;;
826;SDS011;395;48.132;11.608;2022-07-03T14:06:30;1.53;;;1.43;;
826;SDS011;395;48.132;11.608;2022-07-03T14:08:56;1.70;;;1.60;;
826;SDS011;395;48.132;11.608;2022-07-03T14:11:22;2.00;;;1.80;;
826;SDS011;395;48.132;11.608;2022-07-03T14:13:47;1.83;;;1.60;;
826;SDS011;395;48.132;11.608;2022-07-03T14:16:13;2.00;;;1.80;;
826;SDS011;395;48.132;11.608;2022-07-03T14:18:39;2.53;;;1.70;;
826;SDS011;395;48.132;11.608;2022-07-03T14:21:04;1.80;;;1.70;;
826;SDS011;395;48.132;11.608;2022-07-03T14:23:33;1.97;;;1.83;;
826;SDS011;395;48.132;11.608;2022-07-03T14:25:59;2.70;;;1.70;;
826;SDS011;395;48.132;11.608;2022-07-03T14:28:24;3.47;;;1.90;;
826;SDS011;395;48.132;11.608;2022-07-03T14:31:09;2.03;;;1.87;;
826;SDS011;395;48.132;11.608;2022-07-03T14:33:50;1.90;;;1.80;;
826;SDS011;395;48.132;11.608;2022-07-03T14:36:17;2.50;;;1.67;;
826;SDS011;395;48.132;11.608;2022-07-03T14:38:43;2.57;;;1.80;;
826;SDS011;395;48.132;11.608;2022-07-03T14:41:09;2.00;;;1.80;;
826;SDS011;395;48.132;11.608;2022-07-03T14:43:34;1.97;;;1.43;;
826;SDS011;395;48.132;11.608;2022-07-03T14:46:00;1.70;;;1.43;;
826;SDS011;395;48.132;11.608;2022-07-03T14:48:26;1.70;;;1.60;;
826;SDS011;395;48.132;11.608;2022-07-03T14:50:52;1.90;;;1.80;;
826;SDS011;395;48.132;11.608;2022-07-03T14:53:21;1.97;;;1.87;;
826;SDS011;395;48.132;11.608;2022-07-03T14:55:47;2.63;;;1.70;;
826;SDS011;395;48.132;11.608;2022-07-03T14:58:18;2.53;;;2.10;;
826;SDS011;395;48.132;11.608;2022-07-03T15:00:51;1.57;;;1.47;;
826;SDS011;395;48.132;11.608;2022-07-03T15:05:57;2.20;;;1.60;;
826;SDS011;395;48.132;11.608;2022-07-03T15:08:52;1.90;;;1.80;;
826;SDS011;395;48.132;11.608;2022-07-03T15:14:44;4.30;;;1.67;;
826;SDS011;395;48.132;11.608;2022-07-03T15:17:12;1.80;;;1.67;;
826;SDS011;395;48.132;11.608;2022-07-03T15:19:39;1.63;;;1.53;;
826;SDS011;395;48.132;11.608;2022-07-03T15:22:07;3.23;;;1.83;;
826;SDS011;395;48.132;11.608;2022-07-03T15:24:37;3.40;;;1.90;;
826;SDS011;395;48.132;11.608;2022-07-03T15:27:05;2.60;;;1.67;;
826;SDS011;395;48.132;11.608;2022-07-03T15:29:31;4.70;;;1.90;;
826;SDS011;395;48.132;11.608;2022-07-03T15:32:00;4.03;;;1.90;;
826;SDS011;395;48.132;11.608;2022-07-03T15:34:27;1.90;;;1.70;;
826;SDS011;395;48.132;11.608;2022-07-03T15:37:18;3.93;;;1.97;;
826;SDS011;395;48.132;11.608;2022-07-03T15:45:17;2.20;;;1.90;;
826;SDS011;395;48.132;11.608;2022-07-03T15:48:03;2.10;;;2.00;;
826;SDS011;395;48.132;11.608;2022-07-03T15:50:52;1.77;;;1.60;;
826;SDS011;395;48.132;11.608;2022-07-03T15:53:27;1.97;;;1.77;;
826;SDS011;395;48.132;11.608;2022-07-03T15:55:55;1.80;;;1.70;;
826;SDS011;395;48.132;11.608;2022-07-03T15:58:30;2.87;;;2.27;;
826;SDS011;395;48.132;11.608;2022-07-03T16:00:58;2.63;;;2.00;;
826;SDS011;395;48.132;11.608;2022-07-03T16:03:58;3.43;;;1.93;;
826;SDS011;395;48.132;11.608;2022-07-03T16:06:33;1.80;;;1.70;;
826;SDS011;395;48.132;11.608;2022-07-03T16:09:03;4.07;;;2.07;;
826;SDS011;395;48.132;11.608;2022-07-03T16:11:29;2.20;;;1.93;;
826;SDS011;395;48.132;11.608;2022-07-03T16:13:55;2.00;;;1.77;;
826;SDS011;395;48.132;11.608;2022-07-03T16:16:24;1.93;;;1.83;;
826;SDS011;395;48.132;11.608;2022-07-03T16:18:51;3.43;;;2.27;;
826;SDS011;395;48.132;11.608;2022-07-03T16:21:20;2.63;;;2.00;;
826;SDS011;395;48.132;11.608;2022-07-03T16:23:49;2.30;;;2.10;;
826;SDS011;395;48.132;11.608;2022-07-03T16:26:16;2.00;;;1.80;;
826;SDS011;395;48.132;11.608;2022-07-03T16:28:42;4.77;;;2.00;;
826;SDS011;395;48.132;11.608;2022-07-03T16:31:11;2.33;;;2.00;;
826;SDS011;395;48.132;11.608;2022-07-03T16:33:40;2.90;;;2.03;;
826;SDS011;395;48.132;11.608;2022-07-03T16:36:13;2.17;;;1.97;;
826;SDS011;395;48.132;11.608;2022-07-03T16:41:30;3.00;;;1.67;;
826;SDS011;395;48.132;11.608;2022-07-03T16:44:02;3.80;;;2.10;;
826;SDS011;395;48.132;11.608;2022-07-03T16:46:29;2.27;;;2.00;;
826;SDS011;395;48.132;11.608;2022-07-03T16:48:57;2.23;;;1.90;;
826;SDS011;395;48.132;11.608;2022-07-03T16:51:31;2.70;;;2.33;;
826;SDS011;395;48.132;11.608;2022-07-03T16:54:00;1.93;;;1.60;;
826;SDS011;395;48.132;11.608;2022-07-03T16:56:27;3.20;;;2.00;;
826;SDS011;395;48.132;11.608;2022-07-03T16:58:54;4.80;;;2.40;;
826;SDS011;395;48.132;11.608;2022-07-03T17:01:21;2.43;;;2.23;;
826;SDS011;395;48.132;11.608;2022-07-03T17:03:47;2.80;;;2.60;;
826;SDS011;395;48.132;11.608;2022-07-03T17:06:13;2.47;;;2.27;;
826;SDS011;395;48.132;11.608;2022-07-03T17:08:39;1.80;;;1.70;;
826;SDS011;395;48.132;11.608;2022-07-03T17:11:05;2.03;;;1.80;;
826;SDS011;395;48.132;11.608;2022-07-03T17:13:31;3.63;;;2.23;;
826;SDS011;395;48.132;11.608;2022-07-03T17:15:57;2.40;;;2.10;;
826;SDS011;395;48.132;11.608;2022-07-03T17:18:27;2.10;;;2.00;;
826;SDS011;395;48.132;11.608;2022-07-03T17:21:03;2.13;;;1.93;;
826;SDS011;395;48.132;11.608;2022-07-03T17:23:30;1.97;;;1.87;;
826;SDS011;395;48.132;11.608;2022-07-03T17:25:58;3.23;;;2.17;;
826;SDS011;395;48.132;11.608;2022-07-03T17:28:26;2.17;;;2.00;;
826;SDS011;395;48.132;11.608;2022-07-03T17:31:04;2.43;;;1.97;;
826;SDS011;395;48.132;11.608;2022-07-03T17:33:36;2.17;;;2.03;;
826;SDS011;395;48.132;11.608;2022-07-03T17:36:05;2.80;;;2.43;;
826;SDS011;395;48.132;11.608;2022-07-03T17:38:33;4.07;;;2.10;;
826;SDS011;395;48.132;11.608;2022-07-03T17:40:59;2.20;;;1.90;;
826;SDS011;395;48.132;11.608;2022-07-03T17:43:27;3.00;;;2.00;;
826;SDS011;395;48.132;11.608;2022-07-03T17:45:53;5.87;;;2.43;;
826;SDS011;395;48.132;11.608;2022-07-03T17:48:21;2.03;;;1.80;;
826;SDS011;395;48.132;11.608;2022-07-03T17:50:49;2.50;;;1.90;;
826;SDS011;395;48.132;11.608;2022-07-03T17:53:15;2.20;;;2.10;;
826;SDS011;395;48.132;11.608;2022-07-03T17:55:42;2.30;;;2.10;;